Terminal Aerodrome Forecast
Issued by NWS

Home | Current Version | Previous Version | Text Only | Print | Product List | Glossary On
Versions: 1 2 3 4 5 6 7 8 9 10 11 12 13 14
958
FTUS44 KTSA 300520
TAFFYV
TAF
KFYV 300520Z 3006/3106 VRB03KT P6SM BKN250
     FM301600 27005KT P6SM SCT050 BKN250 PROB30 3018/3024 5SM -TSRA
      BKN035CB
     FM310200 VRB02KT P6SM BKN250=

USA.gov is the U.S. government's official web portal to all federal, state and local government web resources and services.